createdAt,value
2022-08-19T00:01:53.782Z,21.29
2022-08-19T00:05:02.091Z,21.29
2022-08-19T00:08:10.369Z,21.27
2022-08-19T00:11:18.652Z,21.23
2022-08-19T00:14:22.575Z,21.23
2022-08-19T00:17:30.902Z,21.17
2022-08-19T00:20:38.442Z,21.17
2022-08-19T00:23:46.628Z,21.19
2022-08-19T00:26:54.986Z,21.16
2022-08-19T00:30:02.428Z,21.16
2022-08-19T00:33:10.502Z,21.13
2022-08-19T00:36:18.439Z,21.13
2022-08-19T00:39:26.371Z,21.17
2022-08-19T00:42:34.412Z,21.16
2022-08-19T00:45:42.302Z,21.09
2022-08-19T00:48:50.843Z,21.09
2022-08-19T00:51:58.439Z,21.11
2022-08-19T00:55:07.005Z,21.09
2022-08-19T00:58:15.468Z,21.09
2022-08-19T01:01:23.128Z,21.04
2022-08-19T01:04:31.542Z,20.96
2022-08-19T01:07:39.960Z,20.95
2022-08-19T01:10:47.581Z,20.95
2022-08-19T01:13:56.003Z,20.99
2022-08-19T01:17:03.815Z,21.02
2022-08-19T01:20:11.654Z,20.99
2022-08-19T01:23:20.068Z,20.99
2022-08-19T01:26:28.114Z,20.96
2022-08-19T01:29:36.112Z,20.93
2022-08-19T01:32:45.051Z,20.86
2022-08-19T01:35:53.200Z,20.77
2022-08-19T01:39:00.904Z,20.76
2022-08-19T01:42:09.062Z,20.74
2022-08-19T01:45:17.174Z,20.68
2022-08-19T01:48:25.105Z,20.62
2022-08-19T01:51:39.597Z,20.54
2022-08-19T01:54:37.097Z,20.50
2022-08-19T01:57:45.441Z,20.49
2022-08-19T02:00:53.413Z,20.51
2022-08-19T02:04:01.301Z,20.39
2022-08-19T02:07:09.383Z,20.31
2022-08-19T02:10:17.924Z,20.34
2022-08-19T02:13:26.503Z,20.35
2022-08-19T02:16:34.484Z,20.35
2022-08-19T02:19:42.757Z,20.30
2022-08-19T02:22:50.748Z,20.25
2022-08-19T02:25:58.467Z,20.15
2022-08-19T02:29:06.856Z,20.13
2022-08-19T02:32:14.519Z,20.13
2022-08-19T02:35:22.971Z,20.15
2022-08-19T02:38:31.353Z,20.13
2022-08-19T02:41:38.810Z,20.13
2022-08-19T02:44:47.022Z,20.09
2022-08-19T02:47:54.863Z,20.03
2022-08-19T02:51:03.074Z,20.02
2022-08-19T02:54:10.959Z,19.98
2022-08-19T02:57:19.179Z,19.88
2022-08-19T03:00:27.182Z,19.84
2022-08-19T03:03:35.724Z,19.76
2022-08-19T03:06:43.695Z,19.70
2022-08-19T03:09:51.694Z,19.61
2022-08-19T03:12:59.673Z,19.58
2022-08-19T03:16:01.866Z,19.60
2022-08-19T03:19:09.858Z,19.57
2022-08-19T03:22:17.844Z,19.51
2022-08-19T03:25:26.159Z,19.53
2022-08-19T03:28:34.132Z,19.57
2022-08-19T03:31:51.184Z,19.58
2022-08-19T03:34:48.634Z,19.58
2022-08-19T03:37:57.119Z,19.58
2022-08-19T03:41:04.922Z,19.58
2022-08-19T03:44:17.683Z,19.60
2022-08-19T03:47:16.232Z,19.58
2022-08-19T03:50:24.107Z,19.60
2022-08-19T03:53:32.128Z,19.60
2022-08-19T03:56:39.778Z,19.55
2022-08-19T03:59:47.816Z,19.43
2022-08-19T04:03:00.269Z,19.38
2022-08-19T04:05:58.015Z,19.36
2022-08-19T04:09:06.508Z,19.39
2022-08-19T04:12:14.455Z,19.25
2022-08-19T04:15:22.144Z,19.28
2022-08-19T04:18:33.578Z,19.29
2022-08-19T04:21:33.115Z,19.31
2022-08-19T04:24:41.408Z,19.25
2022-08-19T04:27:49.308Z,19.21
2022-08-19T04:30:56.804Z,19.15
2022-08-19T04:34:04.861Z,19.14
2022-08-19T04:37:12.718Z,19.13
2022-08-19T04:40:20.507Z,19.14
2022-08-19T04:43:28.685Z,19.15
2022-08-19T04:46:39.159Z,19.17
2022-08-19T04:49:41.824Z,19.15
2022-08-19T04:52:49.763Z,19.17
2022-08-19T04:55:57.911Z,19.14
2022-08-19T04:59:05.820Z,19.08
2022-08-19T05:02:13.739Z,18.99
2022-08-19T05:05:21.908Z,18.99
2022-08-19T05:08:30.667Z,19.02
2022-08-19T05:11:39.411Z,18.98
2022-08-19T05:14:47.193Z,18.95
2022-08-19T05:17:55.205Z,18.91
2022-08-19T05:21:03.496Z,18.90
2022-08-19T05:24:11.296Z,18.92
2022-08-19T05:27:19.287Z,18.94
2022-08-19T05:30:46.010Z,18.95
2022-08-19T05:33:32.657Z,19.01
2022-08-19T05:36:41.610Z,19.02
2022-08-19T05:39:51.689Z,19.02
2022-08-19T05:42:59.360Z,19.02
2022-08-19T05:46:07.223Z,19.02
2022-08-19T05:49:15.395Z,19.05
2022-08-19T05:52:25.563Z,19.01
2022-08-19T05:55:23.899Z,19.08
2022-08-19T05:58:32.237Z,19.14
2022-08-19T06:01:39.718Z,19.20
2022-08-19T06:04:47.616Z,19.25
2022-08-19T06:07:55.658Z,19.21
2022-08-19T06:11:03.512Z,19.18
2022-08-19T06:14:16.587Z,19.17
2022-08-19T06:17:13.725Z,19.23
2022-08-19T06:20:39.837Z,19.15
2022-08-19T06:23:27.446Z,19.11
2022-08-19T06:26:35.381Z,19.14
2022-08-19T06:29:43.667Z,19.23
2022-08-19T06:32:51.728Z,19.18
2022-08-19T06:36:00.851Z,19.18
2022-08-19T06:39:09.117Z,19.13
2022-08-19T06:42:16.944Z,19.18
2022-08-19T06:45:34.939Z,19.31
2022-08-19T06:48:31.144Z,19.38
2022-08-19T06:51:41.536Z,19.38
2022-08-19T06:54:56.059Z,19.36
2022-08-19T06:57:53.947Z,19.32
2022-08-19T07:01:05.651Z,19.35
2022-08-19T07:04:05.719Z,19.33
2022-08-19T07:07:21.430Z,19.23
2022-08-19T07:10:18.630Z,19.17
2022-08-19T07:13:26.193Z,19.23
2022-08-19T07:16:34.464Z,19.31
2022-08-19T07:19:42.823Z,19.38
2022-08-19T07:22:51.527Z,19.35
2022-08-19T07:25:59.830Z,19.38
2022-08-19T07:29:07.819Z,19.33
2022-08-19T07:32:15.569Z,19.31
2022-08-19T07:35:23.919Z,19.31
2022-08-19T07:38:31.409Z,19.35
2022-08-19T07:41:39.711Z,19.40
2022-08-19T07:44:49.800Z,19.40
2022-08-19T07:47:51.215Z,19.38
2022-08-19T07:50:49.442Z,19.40
2022-08-19T07:53:57.404Z,19.42
2022-08-19T07:57:06.557Z,19.42
2022-08-19T08:00:15.378Z,19.43
2022-08-19T08:03:23.791Z,19.50
2022-08-19T08:06:32.198Z,19.51
2022-08-19T08:09:40.518Z,19.58
2022-08-19T08:13:08.881Z,19.65
2022-08-19T08:15:56.305Z,19.60
2022-08-19T08:19:14.733Z,19.58
2022-08-19T08:22:10.635Z,19.63
2022-08-19T08:25:18.536Z,19.69
2022-08-19T08:28:30.052Z,19.75
2022-08-19T08:31:38.708Z,19.83
2022-08-19T08:34:47.384Z,19.80
2022-08-19T08:37:51.087Z,19.78
2022-08-19T08:40:59.781Z,19.86
2022-08-19T08:44:07.759Z,19.94
2022-08-19T08:47:17.893Z,19.94
2022-08-19T08:50:26.419Z,20.05
2022-08-19T08:53:39.068Z,20.21
2022-08-19T08:56:38.477Z,20.33
2022-08-19T08:59:47.683Z,20.46
2022-08-19T09:02:55.508Z,20.56
2022-08-19T09:06:04.259Z,20.59
2022-08-19T09:09:12.901Z,20.86
2022-08-19T09:12:26.807Z,21.04
2022-08-19T09:15:29.934Z,21.04
2022-08-19T09:18:29.996Z,21.14
2022-08-19T09:21:38.813Z,21.23
2022-08-19T09:24:48.637Z,21.34
2022-08-19T09:28:03.074Z,21.27
2022-08-19T09:31:02.683Z,21.26
2022-08-19T09:34:21.283Z,21.30
2022-08-19T09:37:16.438Z,21.29
2022-08-19T09:40:24.988Z,21.09
2022-08-19T09:43:44.265Z,21.11
2022-08-19T09:46:39.734Z,21.24
2022-08-19T09:49:47.696Z,21.23
2022-08-19T09:52:57.903Z,21.23
2022-08-19T09:56:06.390Z,21.20
2022-08-19T09:59:16.633Z,21.16
2022-08-19T10:02:25.679Z,21.20
2022-08-19T10:05:26.979Z,21.20
2022-08-19T10:08:35.691Z,21.26
2022-08-19T10:11:52.551Z,21.34
2022-08-19T10:14:49.694Z,21.39
2022-08-19T10:17:58.721Z,21.56
2022-08-19T10:21:07.688Z,21.74
2022-08-19T10:24:17.441Z,22.10
2022-08-19T10:27:27.148Z,22.04
2022-08-19T10:30:36.021Z,22.01
2022-08-19T10:33:53.366Z,22.27
2022-08-19T10:36:56.508Z,22.23
2022-08-19T10:39:56.182Z,22.09
2022-08-19T10:43:04.671Z,22.10
2022-08-19T10:46:14.245Z,21.99
2022-08-19T10:49:13.836Z,22.07
2022-08-19T10:52:25.969Z,22.07
2022-08-19T10:55:29.257Z,22.29
2022-08-19T10:58:37.582Z,22.54
2022-08-19T11:01:46.662Z,22.87
2022-08-19T11:04:54.600Z,23.01
2022-08-19T11:08:03.644Z,23.15
2022-08-19T11:11:09.325Z,22.83
2022-08-19T11:14:17.866Z,22.97
2022-08-19T11:17:26.304Z,23.24
2022-08-19T11:20:35.168Z,23.57
2022-08-19T11:23:43.498Z,23.76
2022-08-19T11:26:52.463Z,24.24
2022-08-19T11:30:00.444Z,24.68
2022-08-19T11:33:09.535Z,24.80
2022-08-19T11:36:17.805Z,24.71
2022-08-19T11:39:26.265Z,24.27
2022-08-19T11:42:34.996Z,24.61
2022-08-19T11:45:43.008Z,24.92
2022-08-19T11:48:52.032Z,24.85
2022-08-19T11:52:00.318Z,24.82
2022-08-19T11:55:08.997Z,24.85
2022-08-19T11:58:18.818Z,24.82
2022-08-19T12:01:27.744Z,24.75
2022-08-19T12:04:36.508Z,24.82
2022-08-19T12:07:45.060Z,24.90
2022-08-19T12:10:53.479Z,25.16
2022-08-19T12:14:01.793Z,25.01
2022-08-19T12:17:10.521Z,24.75
2022-08-19T12:20:19.684Z,25.00
2022-08-19T12:23:28.084Z,25.12
2022-08-19T12:26:53.328Z,24.68
2022-08-19T12:29:41.566Z,24.85
2022-08-19T12:32:50.077Z,24.83
2022-08-19T12:35:57.510Z,24.79
2022-08-19T12:39:06.053Z,25.02
2022-08-19T12:42:14.475Z,24.85
2022-08-19T12:45:22.060Z,24.91
2022-08-19T12:48:34.237Z,25.31
2022-08-19T12:51:31.632Z,25.56
2022-08-19T12:54:40.046Z,25.56
2022-08-19T12:57:48.104Z,25.53
2022-08-19T13:00:55.911Z,25.62
2022-08-19T13:04:04.281Z,25.49
2022-08-19T13:07:12.164Z,25.39
2022-08-19T13:10:20.230Z,25.34
2022-08-19T13:13:28.188Z,25.39
2022-08-19T13:16:36.647Z,25.50
2022-08-19T13:19:44.856Z,25.59
2022-08-19T13:22:53.757Z,25.57
2022-08-19T13:26:01.770Z,25.67
2022-08-19T13:29:10.700Z,25.57
2022-08-19T13:32:19.822Z,25.52
2022-08-19T13:35:27.939Z,25.39
2022-08-19T13:38:36.665Z,25.57
2022-08-19T13:41:44.536Z,25.71
2022-08-19T13:44:53.547Z,25.62
2022-08-19T13:48:02.716Z,25.54
2022-08-19T13:51:12.691Z,25.69
2022-08-19T13:54:21.661Z,25.80
2022-08-19T13:57:30.275Z,25.64
2022-08-19T14:00:38.846Z,25.59
2022-08-19T14:03:47.458Z,25.59
2022-08-19T14:06:55.962Z,25.87
2022-08-19T14:10:03.998Z,26.25
2022-08-19T14:13:12.538Z,26.58
2022-08-19T14:16:20.346Z,26.42
2022-08-19T14:19:30.133Z,26.35
2022-08-19T14:22:38.323Z,26.04
2022-08-19T14:25:46.452Z,25.97
2022-08-19T14:28:53.986Z,26.24
2022-08-19T14:32:02.006Z,26.22
2022-08-19T14:35:09.847Z,26.40
2022-08-19T14:38:17.674Z,26.57
2022-08-19T14:41:25.969Z,26.83
2022-08-19T14:44:33.404Z,26.98
2022-08-19T14:47:41.627Z,26.52
2022-08-19T14:50:49.665Z,26.68
2022-08-19T14:53:57.171Z,26.79
2022-08-19T14:57:06.587Z,26.95
2022-08-19T15:00:15.980Z,26.86
2022-08-19T15:03:23.535Z,26.69
2022-08-19T15:06:32.079Z,26.80
2022-08-19T15:09:39.782Z,26.81
2022-08-19T15:12:51.155Z,26.62
2022-08-19T15:15:49.196Z,26.73
2022-08-19T15:18:57.047Z,26.96
2022-08-19T15:22:05.035Z,26.72
2022-08-19T15:25:13.228Z,26.62
2022-08-19T15:28:22.558Z,26.81
2022-08-19T15:31:30.432Z,26.95
2022-08-19T15:34:38.293Z,26.83
2022-08-19T15:37:46.526Z,27.02
2022-08-19T15:40:54.395Z,27.06
2022-08-19T15:44:02.173Z,26.87
2022-08-19T15:47:10.198Z,26.91
2022-08-19T15:50:17.580Z,26.95
2022-08-19T15:53:25.749Z,26.55
2022-08-19T15:56:33.851Z,26.40
2022-08-19T15:59:47.464Z,26.37
2022-08-19T16:02:44.681Z,26.27
2022-08-19T16:05:53.794Z,26.28
2022-08-19T16:09:02.031Z,26.21
2022-08-19T16:12:10.287Z,26.27
2022-08-19T16:15:17.769Z,26.39
2022-08-19T16:18:25.970Z,26.42
2022-08-19T16:21:33.702Z,26.32
2022-08-19T16:24:41.533Z,26.08
2022-08-19T16:28:06.662Z,26.11
2022-08-19T16:30:54.942Z,26.15
2022-08-19T16:34:02.777Z,26.21
2022-08-19T16:37:11.086Z,26.22
2022-08-19T16:40:18.903Z,26.24
2022-08-19T16:43:26.731Z,26.12
2022-08-19T16:46:34.876Z,26.08
2022-08-19T16:49:53.947Z,25.99
2022-08-19T16:52:47.985Z,25.97
2022-08-19T16:55:57.489Z,25.83
2022-08-19T16:59:05.557Z,25.67
2022-08-19T17:02:13.090Z,25.49
2022-08-19T17:05:21.214Z,25.37
2022-08-19T17:08:29.352Z,25.38
2022-08-19T17:11:37.133Z,25.35
2022-08-19T17:14:45.728Z,25.22
2022-08-19T17:17:54.256Z,25.22
2022-08-19T17:21:01.877Z,25.16
2022-08-19T17:24:10.355Z,25.01
2022-08-19T17:27:18.870Z,24.94
2022-08-19T17:30:26.292Z,24.94
2022-08-19T17:33:34.481Z,24.95
2022-08-19T17:36:38.770Z,24.85
2022-08-19T17:39:46.302Z,24.75
2022-08-19T17:42:54.986Z,24.63
2022-08-19T17:46:02.907Z,24.56
2022-08-19T17:49:10.416Z,24.44
2022-08-19T17:52:18.657Z,24.37
2022-08-19T17:55:26.727Z,24.24
2022-08-19T17:58:34.340Z,24.10
2022-08-19T18:01:52.373Z,23.95
2022-08-19T18:04:48.995Z,23.77
2022-08-19T18:07:56.827Z,23.64
2022-08-19T18:11:04.438Z,23.55
2022-08-19T18:14:12.126Z,23.52
2022-08-19T18:17:19.919Z,23.45
2022-08-19T18:20:27.601Z,23.26
2022-08-19T18:23:45.468Z,23.04
2022-08-19T18:26:40.812Z,22.89
2022-08-19T18:29:48.884Z,22.80
2022-08-19T18:32:56.955Z,22.69
2022-08-19T18:36:04.466Z,22.56
2022-08-19T18:39:07.900Z,22.43
2022-08-19T18:42:16.108Z,22.23
2022-08-19T18:45:23.599Z,22.06
2022-08-19T18:48:31.323Z,21.91
2022-08-19T18:51:38.712Z,21.78
2022-08-19T18:54:46.502Z,21.69
2022-08-19T18:57:54.557Z,21.61
2022-08-19T19:01:02.305Z,21.61
2022-08-19T19:04:10.253Z,21.56
2022-08-19T19:07:17.998Z,21.54
2022-08-19T19:10:26.287Z,21.46
2022-08-19T19:13:33.740Z,21.38
2022-08-19T19:16:41.749Z,21.29
2022-08-19T19:19:49.691Z,21.19
2022-08-19T19:22:58.245Z,21.16
2022-08-19T19:26:07.095Z,21.11
2022-08-19T19:29:15.154Z,21.06
2022-08-19T19:32:22.748Z,21.04
2022-08-19T19:35:30.787Z,20.98
2022-08-19T19:38:38.711Z,20.91
2022-08-19T19:41:46.279Z,20.90
2022-08-19T19:44:54.862Z,20.84
2022-08-19T19:48:02.491Z,20.79
2022-08-19T19:51:10.463Z,20.76
2022-08-19T19:54:23.334Z,20.76
2022-08-19T19:57:20.256Z,20.69
2022-08-19T20:00:28.237Z,20.65
2022-08-19T20:03:36.857Z,20.62
2022-08-19T20:06:44.519Z,20.64
2022-08-19T20:09:59.856Z,20.64
2022-08-19T20:12:56.296Z,20.66
2022-08-19T20:16:04.022Z,20.69
2022-08-19T20:19:11.994Z,20.74
2022-08-19T20:22:19.464Z,20.74
2022-08-19T20:25:27.948Z,20.76
2022-08-19T20:28:37.163Z,20.74
2022-08-19T20:31:57.335Z,20.72
2022-08-19T20:34:50.910Z,20.79
2022-08-19T20:37:58.668Z,20.87
2022-08-19T20:41:07.432Z,20.95
2022-08-19T20:44:15.940Z,21.02
2022-08-19T20:47:23.635Z,21.05
2022-08-19T20:50:31.507Z,20.96
2022-08-19T20:53:39.824Z,20.91
2022-08-19T20:56:47.471Z,20.93
2022-08-19T20:59:55.543Z,20.95
2022-08-19T21:03:03.644Z,20.83
2022-08-19T21:06:11.440Z,20.84
2022-08-19T21:09:22.003Z,20.86
2022-08-19T21:12:29.900Z,20.81
2022-08-19T21:15:37.864Z,20.79
2022-08-19T21:18:46.091Z,20.77
2022-08-19T21:21:53.913Z,20.77
2022-08-19T21:25:01.656Z,20.74
2022-08-19T21:28:09.959Z,20.71
2022-08-19T21:31:17.820Z,20.68
2022-08-19T21:34:25.719Z,20.74
2022-08-19T21:37:33.532Z,20.76
2022-08-19T21:40:41.731Z,20.68
2022-08-19T21:43:49.187Z,20.59
2022-08-19T21:46:57.265Z,20.47
2022-08-19T21:50:05.521Z,20.38
2022-08-19T21:53:14.014Z,20.34
2022-08-19T21:56:14.917Z,20.30
2022-08-19T21:59:23.100Z,20.30
2022-08-19T22:02:30.552Z,20.38
2022-08-19T22:05:38.919Z,20.49
2022-08-19T22:08:47.410Z,20.54
2022-08-19T22:11:54.922Z,20.64
2022-08-19T22:15:03.225Z,20.66
2022-08-19T22:18:11.524Z,20.61
2022-08-19T22:21:39.681Z,20.56
2022-08-19T22:24:24.605Z,20.54
2022-08-19T22:27:32.628Z,20.65
2022-08-19T22:30:41.654Z,20.77
2022-08-19T22:33:49.996Z,20.72
2022-08-19T22:36:57.958Z,20.61
2022-08-19T22:40:05.885Z,20.51
2022-08-19T22:43:14.013Z,20.43
2022-08-19T22:46:21.846Z,20.39
2022-08-19T22:49:29.798Z,20.43
2022-08-19T22:52:37.756Z,20.53
2022-08-19T22:55:45.898Z,20.58
2022-08-19T22:58:53.701Z,20.61
2022-08-19T23:02:01.681Z,20.56
2022-08-19T23:05:09.101Z,20.51
2022-08-19T23:08:16.904Z,20.56
2022-08-19T23:11:24.745Z,20.54
2022-08-19T23:14:32.485Z,20.56
2022-08-19T23:17:40.795Z,20.59
2022-08-19T23:20:48.835Z,20.56
2022-08-19T23:23:56.799Z,20.47
2022-08-19T23:27:04.928Z,20.41
2022-08-19T23:30:13.342Z,20.30
2022-08-19T23:33:21.206Z,20.31
2022-08-19T23:36:29.195Z,20.24
2022-08-19T23:39:37.579Z,20.18
2022-08-19T23:42:37.595Z,20.12
2022-08-19T23:45:51.064Z,20.09
2022-08-19T23:48:48.830Z,20.16
2022-08-19T23:51:56.357Z,20.23
2022-08-19T23:55:04.691Z,20.27
2022-08-19T23:58:13.071Z,20.16
